General Aviation Weather

Text Reports

Enter one or more of the following location identifiers separated by a space:

Zip Code, Four-Character ICAO or Three-Character IATA airport codes.

METAR - Aviation Routine Weather Report
KGLE - Gainesville, Texas
Updated at 10:55 AM GMT on March 28, 2015 (5:55 AM CDT):
METAR KGLE 281055Z AUTO 17007KT 10SM CLR 06/04 A3009 RMK AO2 T00640042
TAF - Terminal Area Forecast
KGLE - Gainesville, Texas
Updated at 10:55 AM GMT on March 28, 2015 (5:55 AM CDT):
No TAF is currently available for this location.
Decoded:
No decoded TAF is available.
PIREP - Pilot Weather Report
KGLE - Gainesville, Texas
Updated at 10:55 AM GMT on March 28, 2015 (5:55 AM CDT):
No PIREP is currently available for this location.
AIRMET - Airmens Meteorological Information
KGLE - Gainesville, Texas
Updated at 10:55 AM GMT on March 28, 2015 (5:55 AM CDT):
No AIRMET is currently available for this location.
SIGMET - Significant Meteorological Information
KGLE - Gainesville, Texas
Updated at 10:55 AM GMT on March 28, 2015 (5:55 AM CDT):
No SIGMET is currently available for this location.
NOTAM - Notice to Airmen
KGLE - Gainesville, Texas
Updated at 10:55 AM GMT on March 28, 2015 (5:55 AM CDT):
No NOTAM is currently available for this location.
Forecast Area
KGLE - Gainesville, Texas
Updated at 10:55 AM GMT on March 28, 2015 (5:55 AM CDT):
No NOTAM is currently available for this location.
Aviation Weather Maps